Latest Weather Observations for Jimna

IDQ60801

Issued at 9:02 pm EST Monday 6 July 2015 (issued every 30 minutes, with the page automatically refreshed every 10 minutes)

About weather observations | Map of weather stations | Latest weather observations for QLD | Other Formats
Station Details ID: 040651 Name: JIMNA FORESTRY Lat: -26.66 Lon: 152.46 Height: 523.0 m
Data from the previous 72 hours. | See also: Recent months at Jimna
Date/Time
EST
Temp
°C
App
Temp
°C
Dew
Point
Rel
Hum
%
Delta-T
°C
Wind Press
QNH
hPa
Press
MSL
hPa
Rain
since 9 am
mm
Dir
 
Spd
km/h
Gust
km/h
Spd
kts
Gust
kts
06/09:00pm 7.3 - 5.8 90 0.7 - - - - - - - 0.0
06/08:30pm 7.7 - 6.0 89 0.8 - - - - - - - 0.0
06/08:00pm 8.3 - 6.6 89 0.8 - - - - - - - 0.0
06/07:30pm 8.8 - 6.9 88 0.9 - - - - - - - 0.0
06/07:00pm 9.5 - 6.9 84 1.3 - - - - - - - 0.0
06/06:30pm 10.1 - 7.3 83 1.4 - - - - - - - 0.0
06/06:00pm 11.1 - 7.4 78 1.8 - - - - - - - 0.0
06/05:30pm 12.2 - 7.9 75 2.2 - - - - - - - 0.0
06/05:00pm 13.2 - 8.3 72 2.5 - - - - - - - 0.0
06/04:30pm 14.3 - 8.5 68 3.0 - - - - - - - 0.0
06/04:00pm 16.1 - 8.1 59 4.2 - - - - - - - 0.0
06/03:30pm 18.2 - 7.0 48 5.8 - - - - - - - 0.0
06/03:00pm 18.2 - 7.9 51 5.4 - - - - - - - 0.0
06/02:30pm 18.9 - 6.7 45 6.3 - - - - - - - 0.0
06/02:00pm 18.9 - 6.4 44 6.4 - - - - - - - 0.0
06/01:30pm 19.3 - 5.7 41 6.9 - - - - - - - 0.0
06/01:00pm 18.8 - 6.9 46 6.1 - - - - - - - 0.0
06/12:30pm 18.7 - 6.2 44 6.4 - - - - - - - 0.0
06/12:00pm 18.6 - 6.8 46 6.1 - - - - - - - 0.0
06/11:30am 18.0 - 6.5 47 5.9 - - - - - - - 0.0
06/11:00am 17.9 - 7.0 49 5.6 - - - - - - - 0.0
06/10:30am 17.3 - 8.2 55 4.8 - - - - - - - 0.0
06/10:00am 16.0 - 9.2 64 3.6 - - - - - - - 0.0
06/09:30am 15.3 - 10.7 74 2.5 - - - - - - - 0.0
06/09:00am 12.7 - 10.1 84 1.4 - - - - - - - 0.0
06/08:30am 10.2 - 9.9 98 0.2 - - - - - - - 0.0
06/08:00am 6.9 - - - - - - - - - - - 0.0
06/07:30am 5.3 - - - - - - - - - - - 0.0
06/07:00am 3.3 - 3.3 100 0.0 - - - - - - - 0.0
06/06:30am 3.1 - 3.1 100 0.0 - - - - - - - 0.0
06/06:00am 3.2 - 3.1 99 0.0 - - - - - - - 0.0
06/05:30am 3.3 - 3.2 99 0.0 - - - - - - - 0.0
06/05:00am 3.9 - 3.8 99 0.0 - - - - - - - 0.0
06/04:30am 4.1 - 3.8 98 0.1 - - - - - - - 0.0
06/04:00am 4.0 - 3.6 97 0.2 - - - - - - - 0.0
06/03:30am 4.2 - 3.8 97 0.2 - - - - - - - 0.0
06/03:00am 4.4 - 3.8 96 0.3 - - - - - - - 0.0
06/02:30am 4.8 - 3.8 93 0.4 - - - - - - - 0.0
06/02:00am 5.1 - 4.1 93 0.4 - - - - - - - 0.0
06/01:30am 5.3 - 4.1 92 0.5 - - - - - - - 0.0
06/01:00am 5.8 - 4.6 92 0.5 - - - - - - - 0.0
06/12:30am 6.2 - 5.0 92 0.5 - - - - - - - 0.0
06/12:00am 6.5 - 5.1 91 0.6 - - - - - - - 0.0
 
Date/Time
EST
Temp
°C
App
Temp
°C
Dew
Point
Rel
Hum
%
Delta-T
°C
Wind Press
QNH
hPa
Press
MSL
hPa
Rain
since 9 am
mm
Dir
 
Spd
km/h
Gust
km/h
Spd
kts
Gust
kts
05/11:30pm 7.0 - 5.5 90 0.7 - - - - - - - 0.0
05/11:00pm 7.5 - 5.8 89 0.8 - - - - - - - 0.0
05/10:30pm 8.3 - 6.8 90 0.7 - - - - - - - 0.0
05/10:00pm 8.8 - 7.3 90 0.7 - - - - - - - 0.0
05/09:30pm 9.3 - 7.7 90 0.8 - - - - - - - 0.0
05/09:00pm 9.3 - 7.6 89 0.8 - - - - - - - 0.0
05/08:30pm 9.8 - 7.9 88 0.9 - - - - - - - 0.0
05/08:00pm 10.2 - 8.1 87 1.0 - - - - - - - 0.0
05/07:30pm 10.6 - 8.4 86 1.1 - - - - - - - 0.0
05/07:00pm 10.9 - 8.8 87 1.1 - - - - - - - 0.0
05/06:30pm 11.1 - 8.8 86 1.2 - - - - - - - 0.0
05/06:00pm 11.4 - 8.6 83 1.4 - - - - - - - 0.0
05/05:30pm 11.5 - 8.4 81 1.6 - - - - - - - 0.0
05/05:00pm 12.1 - 8.6 79 1.8 - - - - - - - 0.0
05/04:30pm 13.2 - 7.6 69 2.8 - - - - - - - 0.0
05/04:00pm 13.7 - 8.1 69 2.9 - - - - - - - 0.0
05/03:30pm 16.3 - 7.3 55 4.6 - - - - - - - 0.0
05/03:00pm 16.9 - 7.0 52 5.1 - - - - - - - 0.0
05/02:30pm 17.4 - 5.4 45 6.0 - - - - - - - 0.0
05/02:00pm 17.0 - 5.9 48 5.5 - - - - - - - 0.0
05/01:30pm 16.8 - 7.2 53 4.9 - - - - - - - 0.0
05/01:00pm 16.7 - 6.2 50 5.3 - - - - - - - 0.0
05/12:30pm 17.2 - 6.7 50 5.3 - - - - - - - 0.0
05/12:00pm 16.3 - 8.0 58 4.3 - - - - - - - 0.0
05/11:30am 15.7 - 9.4 66 3.3 - - - - - - - 0.0
05/11:00am 15.1 - 10.1 72 2.7 - - - - - - - 0.0
05/10:30am 13.9 - 13.4 97 0.3 - - - - - - - 0.0
05/10:00am 12.3 - - - - - - - - - - - 0.0
05/09:30am 10.6 - - - - - - - - - - - 0.0
05/09:00am 9.0 - - - - - - - - - - - 0.0
05/08:30am 7.6 - - - - - - - - - - - 0.0
05/08:00am 5.1 - - - - - - - - - - - 0.0
05/07:30am 4.0 - - - - - - - - - - - 0.0
05/07:00am 3.4 - - - - - - - - - - - 0.0
05/06:30am 3.8 - - - - - - - - - - - 0.0
05/06:00am 4.0 - - - - - - - - - - - 0.0
05/05:30am 4.1 - - - - - - - - - - - 0.0
05/05:00am 4.4 - - - - - - - - - - - 0.0
05/04:30am 4.6 - - - - - - - - - - - 0.0
05/04:00am 5.0 - - - - - - - - - - - 0.0
05/03:30am 5.2 - - - - - - - - - - - 0.0
05/03:00am 5.0 - 4.1 94 0.4 - - - - - - - 0.0
05/02:30am 5.5 - 5.5 100 0.0 - - - - - - - 0.0
05/02:00am 6.1 - 6.1 100 0.0 - - - - - - - 0.0
05/01:30am 6.4 - - - - - - - - - - - 0.0
05/01:00am 6.5 - 6.5 100 0.0 - - - - - - - 0.0
05/12:30am 6.4 - 6.4 100 0.0 - - - - - - - 0.0
05/12:00am 6.4 - 6.3 99 0.0 - - - - - - - 0.0
 
Date/Time
EST
Temp
°C
App
Temp
°C
Dew
Point
Rel
Hum
%
Delta-T
°C
Wind Press
QNH
hPa
Press
MSL
hPa
Rain
since 9 am
mm
Dir
 
Spd
km/h
Gust
km/h
Spd
kts
Gust
kts
04/11:30pm 6.2 - 5.9 98 0.1 - - - - - - - 0.0
04/11:00pm 6.1 - 5.2 94 0.4 - - - - - - - 0.0
04/10:30pm 6.2 - 5.3 94 0.4 - - - - - - - 0.0
04/10:00pm 6.8 - 6.1 95 0.3 - - - - - - - 0.0
04/09:30pm 7.0 - 5.8 92 0.6 - - - - - - - 0.0
04/09:00pm 7.0 - 5.6 91 0.6 - - - - - - - 0.0
04/08:30pm 7.6 - 6.2 91 0.7 - - - - - - - 0.0
04/08:00pm 8.1 - 6.6 90 0.7 - - - - - - - 0.0
04/07:30pm 8.8 - 7.3 90 0.7 - - - - - - - 0.0
04/07:00pm 9.4 - 7.8 90 0.8 - - - - - - - 0.0
04/06:30pm 10.0 - 8.3 89 0.9 - - - - - - - 0.0
04/06:00pm 10.8 - 8.9 88 1.0 - - - - - - - 0.0
04/05:30pm 11.6 - 9.5 87 1.1 - - - - - - - 0.0
04/05:00pm 12.7 - 9.9 83 1.5 - - - - - - - 0.0
04/04:30pm 13.4 - 10.0 80 1.8 - - - - - - - 0.0
04/04:00pm 14.4 - 10.2 76 2.2 - - - - - - - 0.0
04/03:30pm 15.4 - 9.7 69 3.0 - - - - - - - 0.0
04/03:00pm 16.9 - 10.1 64 3.7 - - - - - - - 0.0
04/02:30pm 16.9 - 10.5 66 3.5 - - - - - - - 0.0
04/02:00pm 16.5 - 10.1 66 3.5 - - - - - - - 0.0
04/01:30pm 16.3 - 10.8 70 3.0 - - - - - - - 0.0
04/01:00pm 15.5 - 10.1 70 2.9 - - - - - - - 0.0
04/12:30pm 14.5 - 9.5 72 2.6 - - - - - - - 0.0
04/12:00pm 14.1 - 9.3 73 2.5 - - - - - - - 0.0
04/11:30am 13.6 - 8.9 73 2.4 - - - - - - - 0.0
04/11:00am 13.0 - 8.9 76 2.1 - - - - - - - 0.0
04/10:30am 12.3 - 8.8 79 1.8 - - - - - - - 0.0
04/10:00am 12.0 - 8.5 79 1.8 - - - - - - - 0.0
04/09:30am 12.6 - 9.4 81 1.7 - - - - - - - 0.0
04/09:00am 11.3 - 8.9 85 1.2 - - - - - - - 0.2
04/08:30am 10.6 - 9.2 91 0.7 - - - - - - - 0.2
04/08:00am 8.9 - - - - - - - - - - - 0.0
04/07:30am 8.2 - - - - - - - - - - - 0.0
04/07:00am 7.5 - 7.2 98 0.1 - - - - - - - 0.0
04/06:30am 7.0 - 5.6 91 0.6 - - - - - - - 0.0
04/06:00am 7.4 - 6.0 91 0.7 - - - - - - - 0.0
04/05:30am 7.6 - 6.2 91 0.7 - - - - - - - 0.0
04/05:00am 7.7 - 7.6 99 0.0 - - - - - - - 0.0
04/04:30am 7.7 - - - - - - - - - - - 0.0
04/04:00am 7.3 - - - - - - - - - - - 0.0
04/03:30am 6.7 - - - - - - - - - - - 0.0
04/03:00am 5.4 - - - - - - - - - - - 0.0
04/02:30am 5.9 - - - - - - - - - - - 0.0
04/02:00am 5.3 - - - - - - - - - - - 0.0
04/01:30am 5.6 - - - - - - - - - - - 0.0
04/01:00am 5.5 - - - - - - - - - - - 0.0
04/12:30am 5.3 - - - - - - - - - - - 0.0
04/12:00am 4.1 - - - - - - - - - - - 0.0
 
Date/Time
EST
Temp
°C
App
Temp
°C
Dew
Point
Rel
Hum
%
Delta-T
°C
Wind Press
QNH
hPa
Press
MSL
hPa
Rain
since 9 am
mm
Dir
 
Spd
km/h
Gust
km/h
Spd
kts
Gust
kts
03/11:30pm 3.5 - 3.1 97 0.2 - - - - - - - 0.0
03/11:00pm 3.3 - 2.3 93 0.4 - - - - - - - 0.0
03/10:30pm 3.6 - 2.6 93 0.4 - - - - - - - 0.0
03/10:00pm 3.9 - 2.7 92 0.5 - - - - - - - 0.0
03/09:30pm 4.1 - 2.9 92 0.5 - - - - - - - 0.0

Other Formats:

Comma delimited format used in spreadsheet applications
http://www.bom.gov.au/fwo/IDQ60801/IDQ60801.94557.axf

JavaScript Object Notation format (JSON) in row-major order
http://www.bom.gov.au/fwo/IDQ60801/IDQ60801.94557.json